Time;durP1;ratioP1;P1;durP2;ratioP2;P2;SDS_P1;SDS_P2;PMS_P1;PMS_P2;Temp;Humidity;BMP_temperature;BMP_pressure;BME280_temperature;BME280_humidity;BME280_pressure;Samples;Min_cycle;Max_cycle;Signal;HPM_P1;HPM_P2
2023/07/07 00:01:07;;;;;;;5.45;3.22;;;12.50;99.90;;;;;;5053247;28;21040;-72
2023/07/07 00:03:34;;;;;;;7.10;3.40;;;12.60;99.90;;;;;;5028295;28;20546;-71
2023/07/07 00:06:00;;;;;;;5.97;3.60;;;12.60;99.90;;;;;;5046309;28;20041;-72
2023/07/07 00:08:26;;;;;;;6.20;3.70;;;12.60;99.90;;;;;;5037468;28;20175;-72
2023/07/07 00:10:53;;;;;;;5.78;3.47;;;12.50;99.90;;;;;;5058072;28;20120;-72
2023/07/07 00:13:20;;;;;;;7.40;4.03;;;12.50;99.90;;;;;;5060138;28;20056;-72
2023/07/07 00:15:46;;;;;;;6.38;3.80;;;12.40;99.90;;;;;;5057194;28;20097;-71
2023/07/07 00:18:27;;;;;;;8.48;4.03;;;12.40;99.90;;;;;;5051144;28;20048;-71
2023/07/07 00:21:00;;;;;;;5.97;4.00;;;12.40;99.90;;;;;;5061989;28;20512;-72
2023/07/07 00:23:27;;;;;;;6.30;3.80;;;12.30;99.90;;;;;;5032091;28;20108;-71
2023/07/07 00:26:03;;;;;;;4.85;3.75;;;12.30;99.90;;;;;;5038254;28;20033;-72
2023/07/07 00:28:29;;;;;;;5.57;4.05;;;12.20;99.90;;;;;;5055849;28;20051;-72
2023/07/07 00:30:56;;;;;;;7.03;3.58;;;12.20;99.90;;;;;;5045179;28;20083;-72
2023/07/07 00:33:21;;;;;;;5.60;3.92;;;12.10;99.90;;;;;;5061515;28;20442;-72
2023/07/07 00:35:48;;;;;;;6.07;3.95;;;12.20;99.90;;;;;;5039980;28;20218;-72
2023/07/07 00:38:14;;;;;;;6.30;4.00;;;12.30;99.90;;;;;;5064597;28;20045;-72
2023/07/07 00:40:40;;;;;;;5.97;4.28;;;12.30;99.90;;;;;;5057055;28;20048;-72
2023/07/07 00:43:15;;;;;;;5.72;4.03;;;12.30;99.90;;;;;;5057641;28;20072;-72
2023/07/07 00:45:41;;;;;;;8.10;4.80;;;12.30;99.90;;;;;;5059733;28;20070;-72
2023/07/07 00:48:14;;;;;;;5.90;4.00;;;12.40;99.90;;;;;;5056643;28;20600;-72
2023/07/07 00:50:48;;;;;;;5.88;4.25;;;12.40;99.90;;;;;;5062005;28;20048;-72
2023/07/07 00:53:14;;;;;;;5.97;4.97;;;12.40;99.90;;;;;;5056206;28;20040;-72
2023/07/07 00:56:03;;;;;;;7.40;4.72;;;12.40;99.90;;;;;;5068006;28;20044;-72
2023/07/07 00:58:29;;;;;;;7.28;5.60;;;12.40;99.90;;;;;;5063161;28;20514;-72
2023/07/07 01:01:06;;;;;;;7.88;5.32;;;12.40;99.90;;;;;;5043967;28;20045;-72
2023/07/07 01:03:58;;;;;;;7.25;5.28;;;12.50;99.90;;;;;;5052780;28;20060;-72
2023/07/07 01:06:32;;;;;;;6.00;5.38;;;12.50;99.90;;;;;;5053945;28;20057;-72
2023/07/07 01:09:02;;;;;;;8.02;5.55;;;12.50;99.90;;;;;;5062458;28;20241;-72
2023/07/07 01:11:30;;;;;;;7.03;6.00;;;12.50;99.90;;;;;;5055641;28;20053;-73
2023/07/07 01:13:58;;;;;;;7.90;5.95;;;12.50;99.90;;;;;;5038947;28;20453;-72
2023/07/07 01:16:38;;;;;;;7.22;6.53;;;12.50;99.90;;;;;;5056313;28;20060;-71
2023/07/07 01:19:18;;;;;;;7.45;6.30;;;12.50;99.90;;;;;;5031072;28;20552;-71
2023/07/07 01:21:56;;;;;;;7.03;6.07;;;12.50;99.90;;;;;;5049288;28;20044;-71
2023/07/07 01:24:35;;;;;;;7.10;5.65;;;12.50;99.90;;;;;;5046255;28;20056;-71
2023/07/07 01:27:27;;;;;;;10.13;8.10;;;12.40;99.90;;;;;;5049381;28;20055;-72
2023/07/07 01:30:19;;;;;;;8.48;6.93;;;12.40;99.90;;;;;;5048014;28;20041;-71
2023/07/07 01:32:46;;;;;;;9.57;8.57;;;12.40;99.90;;;;;;5061706;28;20433;-72
2023/07/07 01:35:22;;;;;;;9.63;7.50;;;12.40;99.90;;;;;;5047729;28;20037;-71
2023/07/07 01:37:56;;;;;;;9.15;8.20;;;12.50;99.90;;;;;;5059499;28;20426;-72
2023/07/07 01:40:42;;;;;;;9.70;8.68;;;12.50;99.90;;;;;;5052011;28;20045;-71
2023/07/07 01:43:21;;;;;;;10.77;9.05;;;12.50;99.90;;;;;;5043949;28;20047;-71
2023/07/07 01:46:07;;;;;;;11.40;9.48;;;12.50;99.90;;;;;;5055588;28;20052;-71
2023/07/07 01:48:47;;;;;;;11.57;10.45;;;12.50;99.90;;;;;;5046393;28;20403;-71
2023/07/07 01:51:16;;;;;;;12.97;11.67;;;12.50;99.90;;;;;;5052057;28;20131;-71
2023/07/07 01:53:44;;;;;;;14.20;12.20;;;12.50;99.90;;;;;;5053627;28;20792;-71
2023/07/07 01:56:13;;;;;;;13.85;12.43;;;12.50;99.90;;;;;;5044269;28;20088;-71
2023/07/07 01:58:40;;;;;;;15.35;13.27;;;12.60;99.90;;;;;;5043110;28;20132;-72
2023/07/07 02:01:06;;;;;;;13.93;12.50;;;12.70;99.90;;;;;;5058044;28;20040;-71
2023/07/07 02:03:31;;;;;;;13.30;12.00;;;12.70;99.90;;;;;;5066630;28;20052;-71
2023/07/07 02:05:57;;;;;;;14.20;12.70;;;12.70;99.90;;;;;;5061593;28;20154;-72
2023/07/07 02:08:23;;;;;;;15.27;13.75;;;12.70;99.90;;;;;;5065572;28;20490;-72
2023/07/07 02:10:51;;;;;;;15.55;14.05;;;12.80;99.90;;;;;;5060500;28;20052;-72
2023/07/07 02:13:17;;;;;;;18.35;16.45;;;12.80;99.90;;;;;;5059993;28;20166;-72
2023/07/07 02:15:43;;;;;;;16.38;14.80;;;12.80;99.90;;;;;;5045313;28;20044;-71
2023/07/07 02:18:08;;;;;;;18.33;16.60;;;12.80;99.90;;;;;;5044749;28;20045;-72
2023/07/07 02:20:34;;;;;;;17.00;15.27;;;12.80;99.90;;;;;;5058759;28;20707;-72
2023/07/07 02:23:00;;;;;;;19.35;17.27;;;12.80;99.90;;;;;;5036723;28;20039;-72
2023/07/07 02:25:25;;;;;;;20.02;17.95;;;12.80;99.90;;;;;;5051553;28;20135;-72
2023/07/07 02:27:51;;;;;;;21.67;19.52;;;12.90;99.90;;;;;;5041022;28;20052;-72
2023/07/07 02:30:17;;;;;;;18.33;16.52;;;12.90;99.90;;;;;;5060045;28;20044;-72
2023/07/07 02:32:43;;;;;;;20.67;17.80;;;12.90;99.90;;;;;;5056179;28;20141;-72
2023/07/07 02:35:09;;;;;;;18.20;16.33;;;12.90;99.90;;;;;;5039762;28;20514;-72
2023/07/07 02:37:35;;;;;;;19.58;17.58;;;12.90;99.90;;;;;;5044976;28;20216;-72
2023/07/07 02:40:00;;;;;;;20.52;18.42;;;12.90;99.90;;;;;;5056105;28;20051;-72
2023/07/07 02:42:26;;;;;;;22.92;20.42;;;12.90;99.90;;;;;;5058216;28;20383;-72
2023/07/07 02:44:52;;;;;;;20.38;18.23;;;12.90;99.90;;;;;;5041388;28;20202;-72
2023/07/07 02:47:18;;;;;;;20.80;18.90;;;12.90;99.90;;;;;;5062193;28;20051;-72
2023/07/07 02:49:44;;;;;;;21.10;19.00;;;12.90;99.90;;;;;;5042929;28;20052;-72
2023/07/07 02:52:09;;;;;;;19.27;17.42;;;12.90;99.90;;;;;;5045187;28;20543;-72
2023/07/07 02:54:35;;;;;;;19.33;17.35;;;12.90;99.90;;;;;;5054875;28;20040;-72
2023/07/07 02:57:03;;;;;;;19.77;17.88;;;12.90;99.90;;;;;;5041734;28;20056;-72
2023/07/07 02:59:28;;;;;;;23.38;21.02;;;12.90;99.90;;;;;;5055885;28;20052;-72
2023/07/07 03:01:54;;;;;;;22.48;20.25;;;12.90;99.90;;;;;;5057248;28;20497;-72
2023/07/07 03:04:24;;;;;;;22.70;20.50;;;12.90;99.90;;;;;;5060920;28;20051;-72
2023/07/07 03:06:50;;;;;;;24.90;22.52;;;12.80;99.90;;;;;;5028609;28;20048;-71
2023/07/07 03:09:16;;;;;;;21.60;19.50;;;12.80;99.90;;;;;;5056671;28;20045;-72
2023/07/07 03:11:42;;;;;;;22.92;20.70;;;12.80;99.90;;;;;;5058158;28;20265;-72
2023/07/07 03:14:11;;;;;;;21.55;19.65;;;12.80;99.90;;;;;;5044476;28;20070;-71
2023/07/07 03:16:46;;;;;;;25.95;23.27;;;12.80;99.90;;;;;;5042038;28;20046;-72
2023/07/07 03:19:12;;;;;;;24.05;21.73;;;12.80;99.90;;;;;;5042384;28;20048;-71
2023/07/07 03:21:38;;;;;;;24.52;21.95;;;12.80;99.90;;;;;;5056831;28;20510;-72
2023/07/07 03:24:04;;;;;;;26.98;24.20;;;12.80;99.90;;;;;;5060295;28;20040;-72
2023/07/07 03:26:31;;;;;;;25.58;23.02;;;12.80;99.90;;;;;;5042265;28;20399;-72
2023/07/07 03:28:56;;;;;;;24.13;21.73;;;12.80;99.90;;;;;;5041973;28;20089;-72
2023/07/07 03:31:23;;;;;;;26.50;23.73;;;12.80;99.90;;;;;;5040422;28;20049;-72
2023/07/07 03:33:51;;;;;;;25.70;23.17;;;12.80;99.90;;;;;;5041853;28;20111;-71
2023/07/07 03:36:21;;;;;;;23.73;21.52;;;12.80;99.90;;;;;;5054499;28;20371;-71
2023/07/07 03:38:48;;;;;;;23.50;21.23;;;12.90;99.90;;;;;;5057960;28;20083;-71
2023/07/07 03:41:17;;;;;;;27.33;24.70;;;12.80;99.90;;;;;;5059686;28;20041;-72
2023/07/07 03:43:44;;;;;;;24.67;22.27;;;12.80;99.90;;;;;;5060572;28;20044;-72
2023/07/07 03:46:12;;;;;;;31.17;27.95;;;12.80;99.90;;;;;;5056902;28;20426;-71
2023/07/07 03:48:43;;;;;;;27.20;24.42;;;12.80;99.90;;;;;;5044032;28;20037;-71
2023/07/07 03:51:08;;;;;;;24.33;21.88;;;12.80;99.90;;;;;;5056479;28;20390;-72
2023/07/07 03:53:36;;;;;;;27.98;25.35;;;12.80;99.90;;;;;;5059538;28;20052;-72
2023/07/07 03:56:01;;;;;;;23.13;21.00;;;12.80;99.90;;;;;;5058320;28;20079;-71
2023/07/07 03:58:29;;;;;;;27.13;24.63;;;12.80;99.90;;;;;;5055586;28;20092;-71
2023/07/07 04:00:59;;;;;;;24.40;21.95;;;12.80;99.90;;;;;;5040986;28;20169;-71
2023/07/07 04:03:24;;;;;;;;;;;12.80;99.90;;;;;;5057425;28;20203;-71
2023/07/07 04:05:50;;;;;;;25.02;22.67;;;12.80;99.90;;;;;;5042877;28;20022;-71
2023/07/07 04:08:22;;;;;;;27.05;24.52;;;12.80;99.90;;;;;;5058343;28;20063;-72
2023/07/07 04:10:57;;;;;;;28.48;25.55;;;12.90;99.90;;;;;;5041344;28;20067;-71
2023/07/07 04:13:23;;;;;;;26.50;23.83;;;12.90;99.90;;;;;;5058725;28;20044;-72
2023/07/07 04:16:07;;;;;;;25.80;23.30;;;12.90;99.90;;;;;;5060242;28;20059;-71
2023/07/07 04:18:33;;;;;;;27.27;24.67;;;12.90;99.90;;;;;;5038977;28;20072;-71
2023/07/07 04:21:01;;;;;;;25.67;23.20;;;12.90;99.90;;;;;;5057335;28;20049;-71
2023/07/07 04:23:27;;;;;;;29.80;26.80;;;13.00;99.90;;;;;;5041066;28;20037;-71
2023/07/07 04:25:53;;;;;;;31.25;27.98;;;13.00;99.90;;;;;;5061474;28;20037;-71
2023/07/07 04:28:23;;;;;;;25.83;23.42;;;13.00;99.90;;;;;;5062505;28;20110;-71
2023/07/07 04:30:56;;;;;;;30.13;27.20;;;13.00;99.90;;;;;;5060083;28;20075;-71
2023/07/07 04:33:23;;;;;;;29.95;27.15;;;13.10;99.90;;;;;;5063746;28;20044;-72
2023/07/07 04:35:57;;;;;;;31.20;28.02;;;13.10;99.90;;;;;;5046026;28;20079;-71
2023/07/07 04:38:30;;;;;;;30.63;27.48;;;13.10;99.90;;;;;;5060519;28;20033;-71
2023/07/07 04:41:26;;;;;;;30.23;27.05;;;13.20;99.90;;;;;;5060759;28;20045;-71
2023/07/07 04:43:54;;;;;;;27.42;24.95;;;13.20;99.90;;;;;;5051756;28;20131;-72
2023/07/07 04:46:26;;;;;;;29.45;26.45;;;13.30;99.90;;;;;;5060736;28;20401;-71
2023/07/07 04:48:52;;;;;;;30.30;27.05;;;13.30;99.90;;;;;;5062074;28;20048;-71
2023/07/07 04:51:18;;;;;;;33.22;30.02;;;13.40;99.90;;;;;;5044717;28;20383;-71
2023/07/07 04:53:44;;;;;;;32.83;29.58;;;13.40;99.90;;;;;;5045566;28;20324;-72
2023/07/07 04:56:14;;;;;;;32.83;29.33;;;13.40;99.90;;;;;;5043525;28;20056;-71
2023/07/07 04:58:40;;;;;;;29.60;26.70;;;13.50;99.90;;;;;;5062436;28;20052;-72
2023/07/07 05:01:15;;;;;;;29.27;26.50;;;13.50;99.90;;;;;;5056889;28;20041;-71
2023/07/07 05:03:42;;;;;;;29.35;26.52;;;13.60;99.90;;;;;;5044541;28;20458;-72
2023/07/07 05:06:09;;;;;;;28.88;25.90;;;13.60;99.90;;;;;;5064245;28;20081;-71
2023/07/07 05:08:38;;;;;;;31.85;28.88;;;13.70;99.90;;;;;;5061130;28;20273;-72
2023/07/07 05:11:05;;;;;;;28.92;26.10;;;13.80;99.90;;;;;;5061817;28;20561;-71
2023/07/07 05:13:31;;;;;;;31.02;28.08;;;13.70;99.90;;;;;;5060311;28;20048;-71
2023/07/07 05:16:03;;;;;;;28.02;25.42;;;13.80;99.90;;;;;;5062751;28;20075;-72
2023/07/07 05:18:29;;;;;;;27.88;25.02;;;13.90;99.90;;;;;;5059902;28;20067;-71
2023/07/07 05:20:55;;;;;;;27.98;25.10;;;13.90;99.90;;;;;;5062923;28;20541;-72
2023/07/07 05:23:21;;;;;;;29.30;26.45;;;14.00;99.90;;;;;;5061986;28;20079;-71
2023/07/07 05:25:47;;;;;;;28.30;25.42;;;14.00;99.90;;;;;;5056641;28;20450;-72
2023/07/07 05:28:13;;;;;;;27.85;25.23;;;14.10;99.90;;;;;;5059034;28;20047;-72
2023/07/07 05:30:39;;;;;;;27.25;24.63;;;14.20;99.90;;;;;;5059908;28;20390;-72
2023/07/07 05:33:05;;;;;;;26.20;23.65;;;14.20;99.90;;;;;;5059344;28;20076;-72
2023/07/07 05:35:31;;;;;;;24.58;22.13;;;14.30;99.90;;;;;;5062057;28;20131;-72
2023/07/07 05:37:57;;;;;;;24.90;22.60;;;14.30;99.90;;;;;;5044295;28;20499;-71
2023/07/07 05:40:23;;;;;;;24.20;21.90;;;14.40;99.90;;;;;;5044053;28;20109;-72
2023/07/07 05:42:51;;;;;;;25.52;23.13;;;14.50;99.90;;;;;;5042860;28;20040;-71
2023/07/07 05:45:17;;;;;;;24.42;21.98;;;14.60;99.90;;;;;;5044713;28;20098;-72
2023/07/07 05:47:43;;;;;;;23.27;20.98;;;14.60;99.90;;;;;;5044255;28;20662;-72
2023/07/07 05:50:09;;;;;;;25.45;22.88;;;14.70;99.90;;;;;;5060032;28;20090;-72
2023/07/07 05:52:35;;;;;;;24.27;21.75;;;14.80;99.90;;;;;;5061678;28;20041;-72
2023/07/07 05:55:03;;;;;;;22.75;20.55;;;14.80;99.90;;;;;;5058559;28;20094;-71
2023/07/07 05:57:29;;;;;;;22.95;21.00;;;14.90;99.90;;;;;;5059793;28;20092;-72
2023/07/07 05:59:55;;;;;;;22.15;19.88;;;15.00;99.90;;;;;;5060690;28;20068;-73
2023/07/07 06:02:20;;;;;;;22.70;20.58;;;15.10;99.90;;;;;;5043397;28;20465;-72
2023/07/07 06:04:46;;;;;;;21.40;19.33;;;15.20;99.90;;;;;;5062844;28;20052;-72
2023/07/07 06:07:12;;;;;;;21.00;18.90;;;15.30;99.90;;;;;;5057960;28;20596;-71
2023/07/07 06:09:38;;;;;;;21.30;19.35;;;15.40;99.90;;;;;;5045146;28;20046;-72
2023/07/07 06:12:05;;;;;;;20.48;18.45;;;15.50;99.90;;;;;;5058907;28;20041;-72
2023/07/07 06:14:31;;;;;;;19.42;17.42;;;15.60;99.90;;;;;;5059281;28;20062;-72
2023/07/07 06:16:57;;;;;;;19.02;17.13;;;15.70;99.90;;;;;;5058920;28;20048;-72
2023/07/07 06:19:23;;;;;;;18.52;16.73;;;15.80;99.90;;;;;;5059538;28;20112;-72
2023/07/07 06:21:48;;;;;;;19.40;17.70;;;15.80;99.90;;;;;;5056059;28;20657;-72
2023/07/07 06:24:14;;;;;;;18.38;16.48;;;15.90;99.90;;;;;;5058851;28;20050;-72
2023/07/07 06:26:40;;;;;;;19.67;17.65;;;16.00;99.90;;;;;;5043410;28;20135;-80
2023/07/07 06:29:06;;;;;;;17.55;15.88;;;16.10;99.90;;;;;;5042652;28;20794;-80
2023/07/07 06:31:32;;;;;;;18.33;16.48;;;16.20;99.90;;;;;;5041833;28;20055;-80
2023/07/07 06:33:57;;;;;;;17.45;15.88;;;16.30;99.90;;;;;;5042912;28;20351;-81
2023/07/07 06:36:23;;;;;;;18.08;16.15;;;16.50;99.90;;;;;;5057751;28;20047;-81
2023/07/07 06:38:49;;;;;;;16.67;15.07;;;16.60;99.90;;;;;;5057938;28;20128;-80
2023/07/07 06:41:19;;;;;;;15.23;13.73;;;16.70;99.90;;;;;;5058269;28;20047;-81
2023/07/07 06:43:45;;;;;;;15.90;14.13;;;16.80;99.90;;;;;;5060976;28;20123;-80
2023/07/07 06:46:14;;;;;;;16.23;14.50;;;17.00;99.90;;;;;;5042485;28;20128;-80
2023/07/07 06:48:40;;;;;;;15.63;13.93;;;17.10;99.90;;;;;;5043140;28;20046;-80
2023/07/07 06:51:05;;;;;;;13.95;12.45;;;17.20;99.90;;;;;;5042256;28;20303;-80
2023/07/07 06:53:31;;;;;;;15.23;12.88;;;17.40;99.90;;;;;;5060147;28;20056;-80
2023/07/07 06:55:57;;;;;;;15.32;12.82;;;17.50;99.90;;;;;;5043129;28;20037;-80
2023/07/07 06:58:23;;;;;;;13.35;11.38;;;17.70;99.90;;;;;;5043333;28;20051;-81
2023/07/07 07:00:49;;;;;;;15.27;11.40;;;17.80;99.90;;;;;;5058638;28;20052;-81
2023/07/07 07:03:14;;;;;;;14.05;11.82;;;17.90;99.90;;;;;;5043224;28;20119;-81
2023/07/07 07:05:41;;;;;;;12.65;11.30;;;18.00;99.90;;;;;;5058646;28;20102;-80
2023/07/07 07:08:07;;;;;;;11.93;9.75;;;18.20;99.90;;;;;;5058923;28;20510;-81
2023/07/07 07:10:32;;;;;;;11.45;10.15;;;18.40;99.90;;;;;;5057552;28;20530;-82
2023/07/07 07:12:58;;;;;;;10.70;9.07;;;18.50;99.90;;;;;;5041594;28;21033;-83
2023/07/07 07:15:24;;;;;;;13.18;9.02;;;18.60;99.90;;;;;;5060053;28;20661;-80
2023/07/07 07:17:50;;;;;;;9.77;8.32;;;18.80;99.90;;;;;;5040051;28;20057;-81
2023/07/07 07:20:17;;;;;;;10.73;9.23;;;18.90;99.90;;;;;;5043030;28;20721;-82
2023/07/07 07:22:46;;;;;;;9.70;7.60;;;19.10;99.90;;;;;;5042604;28;20079;-83
2023/07/07 07:25:12;;;;;;;8.63;6.88;;;19.20;99.90;;;;;;5043427;28;20079;-80
2023/07/07 07:27:38;;;;;;;9.85;7.47;;;19.30;99.90;;;;;;5059758;28;20067;-82
2023/07/07 07:30:07;;;;;;;8.85;6.97;;;19.50;99.90;;;;;;5059150;28;20029;-82
2023/07/07 07:32:32;;;;;;;8.88;6.82;;;19.60;99.90;;;;;;5041557;28;20033;-82
2023/07/07 07:34:58;;;;;;;9.02;6.57;;;19.90;99.90;;;;;;5057042;28;20452;-83
2023/07/07 07:37:25;;;;;;;8.40;6.00;;;20.00;99.90;;;;;;5041662;28;20091;-83
2023/07/07 07:39:51;;;;;;;7.97;5.97;;;20.10;99.90;;;;;;5042736;28;20044;-83
2023/07/07 07:42:17;;;;;;;7.90;5.95;;;20.20;99.90;;;;;;5042213;28;20397;-83
2023/07/07 07:44:42;;;;;;;12.85;6.18;;;20.30;99.90;;;;;;5041079;28;20439;-83
2023/07/07 07:47:09;;;;;;;8.30;5.82;;;20.50;99.90;;;;;;5059001;28;20131;-82
2023/07/07 07:49:35;;;;;;;7.32;5.03;;;20.60;99.90;;;;;;5058541;28;20052;-83
2023/07/07 07:52:01;;;;;;;7.97;5.30;;;20.70;99.90;;;;;;5061244;28;20426;-83
2023/07/07 07:54:27;;;;;;;7.38;4.93;;;20.80;99.90;;;;;;5041122;28;20040;-83
2023/07/07 07:56:53;;;;;;;7.18;4.90;;;20.90;99.90;;;;;;5059801;28;20205;-82
2023/07/07 07:59:19;;;;;;;8.65;4.68;;;21.10;99.90;;;;;;5062319;28;20045;-83
2023/07/07 08:01:45;;;;;;;41.20;9.60;;;21.30;99.90;;;;;;5046820;28;20127;-81
2023/07/07 08:04:11;;;;;;;6.68;4.40;;;21.40;99.90;;;;;;5061354;28;20128;-80
2023/07/07 08:06:37;;;;;;;10.43;4.97;;;21.60;99.90;;;;;;5063127;28;20066;-81
2023/07/07 08:09:03;;;;;;;8.02;4.35;;;21.70;99.90;;;;;;5062046;28;20036;-80
2023/07/07 08:11:41;;;;;;;8.40;4.53;;;21.80;99.90;;;;;;5062947;28;20052;-81
2023/07/07 08:14:19;;;;;;;7.60;4.10;;;21.90;99.90;;;;;;5045015;28;20151;-82
2023/07/07 08:16:45;;;;;;;7.63;4.90;;;22.00;99.90;;;;;;5044967;28;20138;-81
2023/07/07 08:19:12;;;;;;;6.65;3.90;;;22.10;99.90;;;;;;5063413;28;20041;-81
2023/07/07 08:21:40;;;;;;;6.85;4.07;;;22.20;99.90;;;;;;5063221;28;20041;-82
2023/07/07 08:24:06;;;;;;;6.30;4.50;;;22.20;99.90;;;;;;5063108;28;20037;-83
2023/07/07 08:26:33;;;;;;;5.70;4.25;;;22.30;99.90;;;;;;5045740;28;20111;-83
2023/07/07 08:28:59;;;;;;;6.00;4.20;;;22.40;99.90;;;;;;5062840;28;20441;-84
2023/07/07 08:31:25;;;;;;;5.15;3.97;;;22.60;99.90;;;;;;5043346;28;20059;-80
2023/07/07 08:33:52;;;;;;;6.97;4.00;;;22.70;99.90;;;;;;5063697;28;20178;-82
2023/07/07 08:36:18;;;;;;;6.40;3.90;;;22.80;98.90;;;;;;5043599;28;20154;-79
2023/07/07 08:38:43;;;;;;;7.13;3.40;;;22.80;99.90;;;;;;5065221;28;20048;-80
2023/07/07 08:41:09;;;;;;;5.85;3.78;;;23.00;99.90;;;;;;5061208;28;20049;-80
2023/07/07 08:43:36;;;;;;;5.63;3.13;;;23.10;98.20;;;;;;5064682;28;20441;-81
2023/07/07 08:46:36;;;;;;;5.68;3.25;;;23.20;98.60;;;;;;5061122;28;20098;-81
2023/07/07 08:49:35;;;;;;;5.93;3.03;;;23.30;97.90;;;;;;5021819;28;20144;-82
2023/07/07 08:52:07;;;;;;;5.47;2.88;;;23.40;94.20;;;;;;5062814;28;20416;-81
2023/07/07 08:54:58;;;;;;;6.40;2.42;;;23.40;95.20;;;;;;5044552;28;20040;-82
2023/07/07 08:57:28;;;;;;;6.35;2.90;;;23.60;93.50;;;;;;5046369;28;20815;-80
2023/07/07 09:00:01;;;;;;;5.18;2.60;;;23.70;92.10;;;;;;5061232;28;20041;-82
2023/07/07 09:02:45;;;;;;;5.47;2.75;;;23.80;91.10;;;;;;5043891;28;20040;-80
2023/07/07 09:05:42;;;;;;;4.88;2.55;;;23.80;86.80;;;;;;5061828;28;20071;-79
2023/07/07 09:08:20;;;;;;;6.13;2.50;;;23.90;85.40;;;;;;5061715;28;20043;-81
2023/07/07 09:11:16;;;;;;;5.03;2.88;;;24.00;88.40;;;;;;5044291;28;20094;-82
2023/07/07 09:13:47;;;;;;;5.18;2.47;;;24.10;88.80;;;;;;5058021;28;20098;-81
2023/07/07 09:16:34;;;;;;;3.58;2.30;;;24.20;86.00;;;;;;5044882;28;20048;-80
2023/07/07 09:19:09;;;;;;;4.10;2.50;;;24.30;81.30;;;;;;5063251;28;20060;-80
2023/07/07 09:22:02;;;;;;;3.67;2.38;;;24.30;80.90;;;;;;5059614;28;20044;-80
2023/07/07 09:25:02;;;;;;;5.75;2.45;;;24.50;82.50;;;;;;5045192;28;20048;-76
2023/07/07 09:27:49;;;;;;;4.85;2.47;;;24.60;80.30;;;;;;5071266;28;20538;-76
2023/07/07 09:30:41;;;;;;;6.30;2.80;;;24.70;76.30;;;;;;5043430;28;20136;-76
2023/07/07 09:33:18;;;;;;;3.83;2.35;;;24.70;77.60;;;;;;5061019;28;20052;-76
2023/07/07 09:36:11;;;;;;;5.38;2.78;;;24.90;80.30;;;;;;5039904;28;20058;-77
2023/07/07 09:38:49;;;;;;;4.35;2.40;;;24.90;79.70;;;;;;5037950;28;20121;-77
2023/07/07 09:41:36;;;;;;;5.88;2.88;;;25.10;80.40;;;;;;5062389;28;20051;-77
2023/07/07 09:44:15;;;;;;;4.55;2.28;;;25.10;76.60;;;;;;5058932;28;20055;-76
2023/07/07 09:46:51;;;;;;;5.75;2.50;;;25.10;76.90;;;;;;5044980;28;20079;-76
2023/07/07 09:49:38;;;;;;;5.32;2.50;;;25.10;76.00;;;;;;5044452;28;20043;-76
2023/07/07 09:52:58;;;;;;;6.45;2.40;;;25.20;77.60;;;;;;5060759;28;20053;-78
2023/07/07 09:55:30;;;;;;;5.10;2.72;;;25.30;75.70;;;;;;5003934;28;20224;-77
2023/07/07 09:58:11;;;;;;;5.90;2.50;;;25.30;74.50;;;;;;5039421;28;20052;-77
2023/07/07 10:00:43;;;;;;;4.68;2.30;;;25.30;75.70;;;;;;5044094;28;20101;-76
2023/07/07 10:03:19;;;;;;;6.30;2.60;;;25.40;75.50;;;;;;5061907;28;20036;-77
2023/07/07 10:05:46;;;;;;;6.00;2.97;;;25.40;74.40;;;;;;5059712;28;20040;-77
2023/07/07 10:08:14;;;;;;;7.18;2.80;;;25.50;75.70;;;;;;5059636;28;20056;-78
2023/07/07 10:10:40;;;;;;;5.25;2.83;;;25.50;73.30;;;;;;5060163;28;20056;-78
2023/07/07 10:13:14;;;;;;;5.32;2.72;;;25.60;72.50;;;;;;5044502;28;20059;-78
2023/07/07 10:16:00;;;;;;;5.30;2.70;;;25.70;71.10;;;;;;5058576;28;20506;-77
2023/07/07 10:18:29;;;;;;;4.15;2.28;;;25.70;75.00;;;;;;5060526;28;20052;-77
2023/07/07 10:20:58;;;;;;;4.40;2.47;;;25.80;74.60;;;;;;5060758;28;20094;-76
2023/07/07 10:23:28;;;;;;;4.97;2.90;;;25.90;72.70;;;;;;5057746;28;20045;-75
2023/07/07 10:25:54;;;;;;;5.47;2.67;;;26.00;72.40;;;;;;5061031;28;20742;-76
2023/07/07 10:28:21;;;;;;;4.05;2.72;;;26.10;70.10;;;;;;5058692;28;20048;-76
2023/07/07 10:30:48;;;;;;;4.47;2.53;;;26.00;68.30;;;;;;5058395;28;20055;-75
2023/07/07 10:33:16;;;;;;;5.10;2.78;;;25.90;69.20;;;;;;5057587;28;20090;-76
2023/07/07 10:35:43;;;;;;;4.45;2.90;;;26.00;70.30;;;;;;5044197;28;20049;-77
2023/07/07 10:38:10;;;;;;;5.13;2.45;;;26.10;69.60;;;;;;5056679;28;20133;-76
2023/07/07 10:40:37;;;;;;;4.88;2.65;;;26.10;68.60;;;;;;5059765;28;20048;-77
2023/07/07 10:43:05;;;;;;;4.18;2.60;;;26.10;67.00;;;;;;5043094;28;20062;-77
2023/07/07 10:45:31;;;;;;;9.15;2.88;;;26.10;66.40;;;;;;5057958;28;20044;-77
2023/07/07 10:47:57;;;;;;;6.40;2.60;;;26.10;66.00;;;;;;5060551;28;20056;-75
2023/07/07 10:50:28;;;;;;;5.57;2.72;;;26.10;66.10;;;;;;5041857;28;20047;-77
2023/07/07 10:53:10;;;;;;;3.80;2.38;;;26.10;63.80;;;;;;5059083;28;20052;-78
2023/07/07 10:56:07;;;;;;;3.88;2.42;;;26.10;64.50;;;;;;5040161;28;20056;-77
2023/07/07 10:58:53;;;;;;;4.60;2.53;;;26.10;65.80;;;;;;5042208;28;20445;-78
2023/07/07 11:01:49;;;;;;;5.07;2.97;;;26.20;66.30;;;;;;5059778;28;20097;-78
2023/07/07 11:04:36;;;;;;;5.05;3.20;;;26.20;62.70;;;;;;5013540;28;20056;-77
2023/07/07 11:07:08;;;;;;;3.47;2.40;;;26.20;64.70;;;;;;5057444;28;20051;-79
2023/07/07 11:10:02;;;;;;;6.13;2.75;;;26.20;63.50;;;;;;5059189;28;20053;-79
2023/07/07 11:12:38;;;;;;;5.13;2.50;;;26.20;66.20;;;;;;5041332;28;20052;-77
2023/07/07 11:15:18;;;;;;;5.78;2.40;;;26.30;66.00;;;;;;5044173;28;20040;-78
2023/07/07 11:18:03;;;;;;;5.65;3.13;;;26.40;66.60;;;;;;5041703;28;20127;-78
2023/07/07 11:20:38;;;;;;;4.68;2.80;;;26.50;64.40;;;;;;5044080;28;20029;-78
2023/07/07 11:23:22;;;;;;;5.28;2.60;;;26.60;64.20;;;;;;5042531;28;20032;-77
2023/07/07 11:26:12;;;;;;;7.78;2.80;;;26.70;63.50;;;;;;5041721;28;20834;-78
2023/07/07 11:28:49;;;;;;;4.78;2.75;;;26.80;65.00;;;;;;5042823;28;20044;-77
2023/07/07 11:31:27;;;;;;;6.05;2.67;;;26.90;61.80;;;;;;5042384;28;20044;-77
2023/07/07 11:34:17;;;;;;;5.40;2.50;;;27.00;62.70;;;;;;5057150;28;20483;-79
2023/07/07 11:36:59;;;;;;;7.03;3.00;;;27.00;63.20;;;;;;5059144;28;20040;-78
2023/07/07 11:39:37;;;;;;;4.40;2.67;;;27.00;60.60;;;;;;5058615;28;20442;-77
2023/07/07 11:42:35;;;;;;;5.45;2.80;;;27.00;60.30;;;;;;5059885;28;20044;-79
2023/07/07 11:45:26;;;;;;;6.82;3.20;;;27.00;58.70;;;;;;5037996;28;20044;-78
2023/07/07 11:48:05;;;;;;;4.75;2.83;;;27.00;60.10;;;;;;5056078;28;20052;-77
2023/07/07 11:50:46;;;;;;;4.60;2.97;;;27.00;60.00;;;;;;5058950;28;20511;-78
2023/07/07 11:53:29;;;;;;;3.80;2.50;;;27.10;60.80;;;;;;5057064;28;20041;-78
2023/07/07 11:56:00;;;;;;;5.65;2.72;;;27.10;61.60;;;;;;5056024;28;20044;-80
2023/07/07 11:58:36;;;;;;;5.10;2.50;;;27.10;60.90;;;;;;5055236;28;21433;-79
2023/07/07 12:01:16;;;;;;;7.35;2.70;;;27.10;62.10;;;;;;5042618;28;20137;-79
2023/07/07 12:03:44;;;;;;;;;;;27.20;60.90;;;;;;5042166;28;20075;-77
2023/07/07 12:06:23;;;;;;;6.47;2.60;;;27.30;60.90;;;;;;5058644;28;20389;-78
2023/07/07 12:08:56;;;;;;;;;;;27.30;58.30;;;;;;5057127;28;20063;-78
2023/07/07 12:11:25;;;;;;;5.28;2.83;;;27.20;55.60;;;;;;5037749;28;20008;-79
2023/07/07 12:14:29;;;;;;;4.72;2.83;;;27.10;58.70;;;;;;5060012;28;20048;-79
2023/07/07 12:16:58;;;;;;;5.10;2.50;;;27.20;57.70;;;;;;5057921;28;20048;-77
2023/07/07 12:19:37;;;;;;;4.65;2.70;;;27.20;58.80;;;;;;5040161;28;20162;-78
2023/07/07 12:22:11;;;;;;;6.78;2.58;;;27.30;58.20;;;;;;5057968;28;20060;-79
2023/07/07 12:24:41;;;;;;;5.97;2.90;;;27.20;54.90;;;;;;5056763;28;20083;-78
2023/07/07 12:27:23;;;;;;;4.45;2.47;;;27.20;55.40;;;;;;5040466;28;20105;-79
2023/07/07 12:29:51;;;;;;;4.60;2.40;;;27.20;53.80;;;;;;5058095;28;20514;-77
2023/07/07 12:32:18;;;;;;;4.22;2.50;;;27.30;53.30;;;;;;5058617;28;20056;-78
2023/07/07 12:35:27;;;;;;;4.80;2.67;;;27.30;53.60;;;;;;5040152;28;20055;-78
2023/07/07 12:37:56;;;;;;;3.47;2.45;;;27.30;52.10;;;;;;5045317;28;20053;-78
2023/07/07 12:40:23;;;;;;;4.90;2.42;;;27.30;55.20;;;;;;5043021;28;20048;-78
2023/07/07 12:43:05;;;;;;;4.53;2.60;;;27.30;54.50;;;;;;5056788;28;20493;-78
2023/07/07 12:45:32;;;;;;;6.03;2.35;;;27.40;53.70;;;;;;5059002;28;20059;-79
2023/07/07 12:48:14;;;;;;;5.78;2.75;;;27.30;52.60;;;;;;5043510;28;20411;-78
2023/07/07 12:50:45;;;;;;;5.50;2.65;;;27.20;52.50;;;;;;5044019;28;20052;-77
2023/07/07 12:53:51;;;;;;;4.60;2.80;;;27.20;52.80;;;;;;5062632;28;20045;-78
2023/07/07 12:56:18;;;;;;;4.13;2.80;;;27.30;53.70;;;;;;5044324;28;20073;-78
2023/07/07 12:58:47;;;;;;;5.07;2.55;;;27.30;52.10;;;;;;5063630;28;20053;-77
2023/07/07 13:01:19;;;;;;;5.00;2.67;;;27.40;55.20;;;;;;5061534;28;20045;-78